Time;durP1;ratioP1;P1;durP2;ratioP2;P2;SDS_P1;SDS_P2;PMS_P1;PMS_P2;Temp;Humidity;BMP_temperature;BMP_pressure;BME280_temperature;BME280_humidity;BME280_pressure;Samples;Min_cycle;Max_cycle;Signal;HPM_P1;HPM_P2
2023/08/12 00:01:49;;;;;;;9.65;3.70;;;19.40;99.90;;;;;;5043368;28;20052;-65
2023/08/12 00:04:16;;;;;;;8.18;3.42;;;19.40;99.90;;;;;;5043601;28;20492;-66
2023/08/12 00:06:42;;;;;;;8.30;3.60;;;19.40;99.90;;;;;;5059719;28;20044;-66
2023/08/12 00:09:08;;;;;;;6.28;3.22;;;19.30;99.90;;;;;;5063922;28;20048;-66
2023/08/12 00:11:35;;;;;;;6.75;3.10;;;19.30;99.90;;;;;;5063279;28;20098;-67
2023/08/12 00:14:00;;;;;;;7.75;3.55;;;19.30;99.90;;;;;;5052938;28;20499;-67
2023/08/12 00:16:26;;;;;;;8.85;3.58;;;19.30;99.90;;;;;;5043132;28;20048;-66
2023/08/12 00:18:52;;;;;;;7.25;3.40;;;19.30;99.90;;;;;;5045861;28;20122;-66
2023/08/12 00:21:17;;;;;;;11.93;4.15;;;19.30;99.90;;;;;;5063220;28;20044;-66
2023/08/12 00:23:44;;;;;;;10.50;3.92;;;19.30;99.90;;;;;;5063438;28;20055;-67
2023/08/12 00:26:10;;;;;;;8.15;3.30;;;19.30;99.90;;;;;;5061311;28;20056;-67
2023/08/12 00:28:36;;;;;;;8.02;3.55;;;19.30;99.90;;;;;;5040096;28;20408;-67
2023/08/12 00:31:02;;;;;;;8.95;3.63;;;19.20;99.90;;;;;;5072771;28;20029;-66
2023/08/12 00:33:28;;;;;;;10.13;3.83;;;19.20;99.90;;;;;;5040102;28;20045;-67
2023/08/12 00:35:53;;;;;;;9.30;4.35;;;19.20;99.90;;;;;;5023166;28;20049;-66
2023/08/12 00:38:19;;;;;;;8.15;4.03;;;19.10;99.90;;;;;;5036090;28;20048;-67
2023/08/12 00:40:45;;;;;;;9.90;3.83;;;19.10;99.90;;;;;;5063098;28;20132;-68
2023/08/12 00:43:11;;;;;;;10.13;4.43;;;19.10;99.90;;;;;;5061550;28;20495;-67
2023/08/12 00:45:37;;;;;;;7.85;4.05;;;19.10;99.90;;;;;;5031220;28;20051;-67
2023/08/12 00:48:07;;;;;;;9.80;3.92;;;19.00;99.90;;;;;;5026113;28;20041;-67
2023/08/12 00:50:33;;;;;;;8.93;4.15;;;19.00;99.90;;;;;;5063439;28;20340;-68
2023/08/12 00:52:59;;;;;;;11.00;4.50;;;18.90;99.90;;;;;;5063074;28;20047;-67
2023/08/12 00:55:25;;;;;;;8.45;4.00;;;18.90;99.90;;;;;;5046225;28;20086;-67
2023/08/12 00:57:50;;;;;;;8.38;4.22;;;18.90;99.90;;;;;;5060238;28;20040;-70
2023/08/12 01:00:20;;;;;;;9.90;4.28;;;18.80;99.90;;;;;;5060623;28;20492;-67
2023/08/12 01:02:47;;;;;;;8.68;3.83;;;18.80;99.90;;;;;;5046175;28;20057;-67
2023/08/12 01:05:14;;;;;;;9.07;4.35;;;18.80;99.90;;;;;;5065435;28;20036;-68
2023/08/12 01:07:39;;;;;;;10.43;4.88;;;18.80;99.90;;;;;;5068036;28;20048;-68
2023/08/12 01:10:06;;;;;;;9.65;4.35;;;18.80;99.90;;;;;;5053687;28;20105;-68
2023/08/12 01:12:41;;;;;;;11.57;4.72;;;18.70;99.90;;;;;;5046422;28;20196;-67
2023/08/12 01:15:26;;;;;;;11.57;5.15;;;18.70;99.90;;;;;;5053105;28;20041;-69
2023/08/12 01:17:54;;;;;;;11.15;4.50;;;18.70;99.90;;;;;;5046281;28;20091;-68
2023/08/12 01:20:26;;;;;;;11.70;4.72;;;18.70;99.90;;;;;;5046488;28;20443;-68
2023/08/12 01:22:57;;;;;;;9.45;4.57;;;18.70;99.90;;;;;;5046424;28;20037;-68
2023/08/12 01:25:26;;;;;;;11.98;5.53;;;18.70;99.90;;;;;;5046511;28;20448;-66
2023/08/12 01:27:51;;;;;;;10.45;5.40;;;18.60;99.90;;;;;;5045586;28;20393;-67
2023/08/12 01:30:19;;;;;;;14.07;5.72;;;18.60;99.90;;;;;;5054148;28;20048;-65
2023/08/12 01:33:24;;;;;;;18.02;5.50;;;18.50;99.90;;;;;;5046013;28;20151;-66
2023/08/12 01:35:58;;;;;;;11.52;5.35;;;18.50;99.90;;;;;;5038333;28;20230;-66
2023/08/12 01:38:27;;;;;;;10.77;5.25;;;18.50;99.90;;;;;;5047651;28;20106;-66
2023/08/12 01:40:53;;;;;;;9.65;5.60;;;18.40;99.90;;;;;;5047535;28;20464;-66
2023/08/12 01:43:19;;;;;;;11.15;5.35;;;18.50;99.90;;;;;;5048163;28;20090;-65
2023/08/12 01:45:45;;;;;;;14.52;5.88;;;18.40;99.90;;;;;;5051113;28;20077;-66
2023/08/12 01:48:11;;;;;;;12.07;5.70;;;18.40;99.90;;;;;;5047362;28;20552;-65
2023/08/12 01:50:36;;;;;;;14.32;5.40;;;18.40;99.90;;;;;;5045740;28;20128;-67
2023/08/12 01:53:02;;;;;;;10.70;5.22;;;18.50;99.90;;;;;;5051678;28;20028;-67
2023/08/12 01:55:28;;;;;;;10.48;5.22;;;18.50;99.90;;;;;;5065673;28;20033;-67
2023/08/12 01:57:53;;;;;;;10.68;5.72;;;18.50;99.90;;;;;;5066511;28;20531;-67
2023/08/12 02:00:19;;;;;;;11.65;5.70;;;18.50;99.90;;;;;;5058253;28;20535;-67
2023/08/12 02:02:47;;;;;;;10.50;5.43;;;18.50;99.90;;;;;;5065368;28;20507;-67
2023/08/12 02:05:14;;;;;;;11.63;5.40;;;18.50;99.90;;;;;;5049076;28;20110;-69
2023/08/12 02:07:40;;;;;;;9.95;5.18;;;18.40;99.90;;;;;;5065216;28;20040;-66
2023/08/12 02:10:05;;;;;;;9.63;5.10;;;18.40;99.90;;;;;;5046722;28;20036;-66
2023/08/12 02:12:31;;;;;;;10.82;5.00;;;18.40;99.90;;;;;;5065383;28;20032;-66
2023/08/12 02:14:57;;;;;;;8.85;5.35;;;18.40;99.90;;;;;;5055757;28;20033;-67
2023/08/12 02:17:22;;;;;;;9.38;5.05;;;18.40;99.90;;;;;;5044022;28;20488;-67
2023/08/12 02:19:48;;;;;;;10.65;5.32;;;18.40;99.90;;;;;;5060232;28;20039;-69
2023/08/12 02:22:13;;;;;;;12.35;5.75;;;18.40;99.90;;;;;;5066230;28;20558;-67
2023/08/12 02:24:39;;;;;;;11.80;5.57;;;18.40;99.90;;;;;;5048560;28;20086;-67
2023/08/12 02:27:04;;;;;;;11.25;5.35;;;18.40;99.90;;;;;;5062595;28;20414;-66
2023/08/12 02:29:30;;;;;;;10.70;5.57;;;18.40;99.90;;;;;;5054791;28;20577;-69
2023/08/12 02:31:55;;;;;;;10.02;5.07;;;18.40;99.90;;;;;;5042211;28;20052;-67
2023/08/12 02:34:21;;;;;;;10.05;5.80;;;18.40;99.90;;;;;;5025403;28;20045;-66
2023/08/12 02:36:47;;;;;;;9.93;5.20;;;18.40;99.90;;;;;;5041338;28;20084;-68
2023/08/12 02:39:12;;;;;;;11.20;5.65;;;18.40;99.90;;;;;;5059376;28;20128;-67
2023/08/12 02:41:38;;;;;;;12.82;5.70;;;18.40;99.90;;;;;;5063648;28;20182;-67
2023/08/12 02:44:03;;;;;;;11.20;5.93;;;18.40;99.90;;;;;;5055194;28;20048;-67
2023/08/12 02:46:29;;;;;;;13.30;6.20;;;18.40;99.90;;;;;;5064491;28;20059;-67
2023/08/12 02:48:55;;;;;;;13.82;5.90;;;18.40;99.90;;;;;;5066072;28;20488;-67
2023/08/12 02:51:20;;;;;;;11.88;6.15;;;18.40;99.90;;;;;;5065977;28;20095;-68
2023/08/12 02:53:46;;;;;;;14.70;6.32;;;18.50;99.90;;;;;;5048635;28;20072;-69
2023/08/12 02:56:11;;;;;;;14.02;5.90;;;18.50;99.90;;;;;;5045584;28;20037;-67
2023/08/12 02:58:37;;;;;;;18.05;6.85;;;18.50;99.90;;;;;;5044464;28;20055;-69
2023/08/12 03:01:04;;;;;;;12.60;6.07;;;18.50;99.90;;;;;;5060685;28;20087;-67
2023/08/12 03:03:29;;;;;;;12.63;6.30;;;18.50;99.90;;;;;;5064465;28;20036;-68
2023/08/12 03:05:55;;;;;;;16.10;7.85;;;18.50;99.90;;;;;;5064245;28;20047;-67
2023/08/12 03:08:20;;;;;;;13.20;6.47;;;18.50;99.90;;;;;;5063899;28;20515;-68
2023/08/12 03:10:46;;;;;;;12.43;6.70;;;18.60;99.90;;;;;;5063393;28;20435;-67
2023/08/12 03:13:12;;;;;;;15.20;8.35;;;18.50;99.90;;;;;;5062532;28;20071;-68
2023/08/12 03:15:41;;;;;;;14.48;7.43;;;18.50;99.90;;;;;;5057159;28;20056;-67
2023/08/12 03:18:07;;;;;;;14.70;7.65;;;18.50;99.90;;;;;;5064220;28;20541;-67
2023/08/12 03:20:33;;;;;;;12.93;7.60;;;18.50;99.90;;;;;;5064275;28;20040;-68
2023/08/12 03:23:00;;;;;;;14.25;7.57;;;18.50;99.90;;;;;;5048086;28;20056;-67
2023/08/12 03:25:25;;;;;;;13.40;7.35;;;18.50;99.90;;;;;;5028371;28;20124;-67
2023/08/12 03:27:51;;;;;;;12.43;7.65;;;18.40;99.90;;;;;;5063264;28;20146;-68
2023/08/12 03:30:16;;;;;;;17.60;8.95;;;18.40;99.90;;;;;;5043172;28;20040;-67
2023/08/12 03:32:42;;;;;;;17.10;8.80;;;18.30;99.90;;;;;;5029515;28;20083;-67
2023/08/12 03:35:08;;;;;;;16.52;8.52;;;18.30;99.90;;;;;;5045568;28;20072;-66
2023/08/12 03:37:34;;;;;;;16.55;9.27;;;18.30;99.90;;;;;;5063774;28;20503;-66
2023/08/12 03:40:00;;;;;;;17.60;8.60;;;18.30;99.90;;;;;;5045282;28;20082;-68
2023/08/12 03:42:26;;;;;;;17.95;9.80;;;18.30;99.90;;;;;;5063601;28;20047;-68
2023/08/12 03:44:51;;;;;;;18.55;8.75;;;18.30;99.90;;;;;;5037048;28;20067;-67
2023/08/12 03:47:21;;;;;;;15.93;8.82;;;18.30;99.90;;;;;;5043962;28;20544;-68
2023/08/12 03:49:47;;;;;;;15.57;8.63;;;18.30;99.90;;;;;;5048450;28;20483;-68
2023/08/12 03:52:13;;;;;;;14.40;9.10;;;18.20;99.90;;;;;;5063468;28;20123;-68
2023/08/12 03:54:38;;;;;;;17.42;9.23;;;18.30;99.90;;;;;;5065235;28;20664;-68
2023/08/12 03:57:04;;;;;;;20.42;10.18;;;18.20;99.90;;;;;;5061789;28;20051;-67
2023/08/12 03:59:30;;;;;;;17.45;9.63;;;18.30;99.90;;;;;;5051862;28;20052;-67
2023/08/12 04:01:57;;;;;;;19.48;9.98;;;18.20;99.90;;;;;;5045197;28;20065;-69
2023/08/12 04:04:23;;;;;;;15.13;9.57;;;18.30;99.90;;;;;;5058238;28;20059;-69
2023/08/12 04:06:51;;;;;;;15.98;9.95;;;18.20;99.90;;;;;;5064570;28;20044;-69
2023/08/12 04:09:18;;;;;;;19.52;9.52;;;18.20;99.90;;;;;;5063704;28;20460;-68
2023/08/12 04:11:44;;;;;;;19.27;10.27;;;18.20;99.90;;;;;;5061573;28;20032;-68
2023/08/12 04:14:10;;;;;;;18.80;10.13;;;18.20;99.90;;;;;;5037522;28;20030;-68
2023/08/12 04:16:36;;;;;;;18.27;10.65;;;18.20;99.90;;;;;;5047171;28;20044;-68
2023/08/12 04:19:02;;;;;;;17.60;9.80;;;18.20;99.90;;;;;;5061912;28;20071;-68
2023/08/12 04:21:28;;;;;;;18.02;10.45;;;18.20;99.90;;;;;;5063663;28;20496;-67
2023/08/12 04:23:54;;;;;;;20.75;10.25;;;18.20;99.90;;;;;;5063773;28;20076;-67
2023/08/12 04:26:20;;;;;;;17.48;10.32;;;18.30;99.90;;;;;;5053244;28;20079;-66
2023/08/12 04:28:45;;;;;;;19.23;11.18;;;18.30;99.90;;;;;;5048828;28;20399;-67
2023/08/12 04:31:11;;;;;;;17.27;10.68;;;18.30;99.90;;;;;;5051475;28;20044;-67
2023/08/12 04:33:37;;;;;;;23.58;10.95;;;18.30;99.90;;;;;;5024851;28;20076;-67
2023/08/12 04:36:03;;;;;;;18.95;10.88;;;18.40;99.90;;;;;;5024392;28;20094;-67
2023/08/12 04:38:29;;;;;;;22.00;11.65;;;18.40;99.90;;;;;;5060552;28;20131;-68
2023/08/12 04:40:54;;;;;;;18.52;11.05;;;18.40;99.90;;;;;;5029759;28;20049;-67
2023/08/12 04:43:20;;;;;;;19.80;11.50;;;18.40;99.90;;;;;;5046672;28;20045;-67
2023/08/12 04:45:47;;;;;;;18.83;11.07;;;18.50;99.90;;;;;;5061267;28;20051;-66
2023/08/12 04:48:13;;;;;;;16.92;10.60;;;18.50;99.90;;;;;;5066905;28;20132;-67
2023/08/12 04:50:38;;;;;;;23.48;11.52;;;18.50;99.90;;;;;;5055624;28;20116;-68
2023/08/12 04:53:07;;;;;;;18.83;11.32;;;18.50;99.90;;;;;;5047090;28;20428;-67
2023/08/12 04:55:34;;;;;;;22.98;11.88;;;18.50;99.90;;;;;;5048123;28;20095;-67
2023/08/12 04:58:01;;;;;;;18.52;11.40;;;18.50;99.90;;;;;;5028084;28;20056;-68
2023/08/12 05:00:27;;;;;;;30.38;13.43;;;18.50;99.90;;;;;;5057096;28;20052;-68
2023/08/12 05:02:53;;;;;;;21.50;12.23;;;18.60;99.90;;;;;;5050021;28;20090;-67
2023/08/12 05:05:19;;;;;;;21.92;13.25;;;18.60;99.90;;;;;;5037329;28;20045;-66
2023/08/12 05:07:48;;;;;;;22.83;13.32;;;18.60;99.90;;;;;;5047732;28;20044;-67
2023/08/12 05:10:17;;;;;;;20.98;12.80;;;18.60;99.90;;;;;;5046742;28;20435;-67
2023/08/12 05:12:44;;;;;;;19.23;11.52;;;18.70;99.90;;;;;;5048215;28;20083;-67
2023/08/12 05:15:10;;;;;;;19.92;12.93;;;18.70;99.90;;;;;;5056492;28;20041;-67
2023/08/12 05:17:37;;;;;;;25.50;13.80;;;18.70;99.90;;;;;;5064838;28;20048;-67
2023/08/12 05:20:06;;;;;;;24.45;13.00;;;18.70;99.90;;;;;;5046456;28;20099;-67
2023/08/12 05:22:31;;;;;;;23.33;13.55;;;18.80;99.90;;;;;;5036347;28;20573;-68
2023/08/12 05:24:57;;;;;;;20.48;11.77;;;18.80;99.90;;;;;;5066577;28;20127;-67
2023/08/12 05:27:23;;;;;;;22.58;13.48;;;18.90;99.90;;;;;;5067636;28;20079;-68
2023/08/12 05:29:48;;;;;;;18.50;12.35;;;18.90;99.90;;;;;;5056909;28;20037;-65
2023/08/12 05:32:14;;;;;;;22.38;12.98;;;19.00;99.90;;;;;;5042782;28;20037;-67
2023/08/12 05:34:39;;;;;;;24.45;12.48;;;19.00;99.90;;;;;;5028014;28;20041;-67
2023/08/12 05:37:05;;;;;;;27.20;13.18;;;19.10;99.90;;;;;;5068071;28;20087;-68
2023/08/12 05:39:31;;;;;;;46.03;15.27;;;19.20;99.90;;;;;;5046107;28;20090;-67
2023/08/12 05:41:56;;;;;;;26.50;14.30;;;19.20;99.90;;;;;;5046053;28;20135;-67
2023/08/12 05:44:22;;;;;;;22.98;13.15;;;19.30;99.90;;;;;;5049063;28;20120;-67
2023/08/12 05:46:48;;;;;;;24.77;12.80;;;19.30;99.90;;;;;;5067226;28;20105;-66
2023/08/12 05:49:13;;;;;;;20.30;12.60;;;19.40;99.90;;;;;;5059438;28;20041;-65
2023/08/12 05:51:39;;;;;;;22.83;13.07;;;19.50;99.90;;;;;;5045727;28;20091;-66
2023/08/12 05:54:05;;;;;;;25.70;12.70;;;19.50;99.90;;;;;;5029289;28;20069;-68
2023/08/12 05:56:30;;;;;;;20.85;12.45;;;19.50;99.90;;;;;;5045668;28;20554;-67
2023/08/12 05:58:56;;;;;;;24.92;12.50;;;19.60;99.90;;;;;;5051759;28;20527;-68
2023/08/12 06:01:24;;;;;;;21.88;13.38;;;19.60;99.90;;;;;;5064266;28;20415;-67
2023/08/12 06:03:50;;;;;;;22.38;11.98;;;19.60;99.90;;;;;;5055875;28;20103;-67
2023/08/12 06:06:16;;;;;;;20.05;13.35;;;19.70;99.90;;;;;;5045383;28;20036;-66
2023/08/12 06:08:41;;;;;;;24.58;14.77;;;19.70;99.90;;;;;;5045668;28;20037;-67
2023/08/12 06:11:07;;;;;;;27.02;14.48;;;19.80;99.90;;;;;;5061822;28;20047;-67
2023/08/12 06:13:32;;;;;;;25.50;13.95;;;19.80;99.90;;;;;;5061958;28;20032;-69
2023/08/12 06:15:58;;;;;;;21.17;13.32;;;19.80;99.90;;;;;;5060670;28;20071;-67
2023/08/12 06:18:24;;;;;;;22.50;13.73;;;19.90;99.90;;;;;;5048601;28;20040;-68
2023/08/12 06:20:49;;;;;;;25.33;14.30;;;19.90;99.90;;;;;;5098955;28;20080;-67
2023/08/12 06:23:16;;;;;;;21.80;13.75;;;20.00;99.90;;;;;;5060269;28;20043;-66
2023/08/12 06:25:42;;;;;;;25.55;15.30;;;20.00;99.90;;;;;;5045238;28;20037;-68
2023/08/12 06:28:09;;;;;;;27.35;14.85;;;20.00;99.90;;;;;;5044508;28;20048;-69
2023/08/12 06:30:36;;;;;;;24.50;14.70;;;20.00;99.90;;;;;;5028629;28;20162;-68
2023/08/12 06:33:01;;;;;;;20.25;13.70;;;20.00;99.90;;;;;;5045458;28;20398;-67
2023/08/12 06:35:27;;;;;;;25.25;14.32;;;20.00;99.90;;;;;;5045518;28;20036;-67
2023/08/12 06:37:52;;;;;;;22.25;14.48;;;20.00;99.90;;;;;;5044944;28;20052;-66
2023/08/12 06:40:18;;;;;;;23.90;14.10;;;20.10;99.90;;;;;;5045154;28;20416;-68
2023/08/12 06:42:43;;;;;;;23.63;14.73;;;20.10;99.90;;;;;;5044655;28;20420;-67
2023/08/12 06:45:09;;;;;;;22.80;13.60;;;20.10;99.90;;;;;;5059672;28;20135;-66
2023/08/12 06:47:35;;;;;;;24.58;14.82;;;20.10;99.90;;;;;;5064926;28;20091;-67
2023/08/12 06:50:01;;;;;;;34.95;14.95;;;20.20;99.90;;;;;;5066268;28;20082;-67
2023/08/12 06:52:27;;;;;;;23.38;14.70;;;20.20;99.90;;;;;;5043890;28;20041;-67
2023/08/12 06:54:53;;;;;;;24.15;14.20;;;20.20;99.90;;;;;;5028167;28;20541;-68
2023/08/12 06:57:19;;;;;;;23.52;14.02;;;20.30;99.90;;;;;;5044334;28;20504;-68
2023/08/12 06:59:44;;;;;;;22.85;13.18;;;20.30;99.90;;;;;;5053424;28;20041;-67
2023/08/12 07:02:10;;;;;;;23.80;12.75;;;20.30;99.90;;;;;;5043766;28;20412;-67
2023/08/12 07:04:36;;;;;;;23.05;12.35;;;20.40;99.90;;;;;;5044698;28;20041;-67
2023/08/12 07:07:01;;;;;;;25.30;12.82;;;20.40;99.90;;;;;;5045598;28;20090;-69
2023/08/12 07:09:27;;;;;;;19.65;12.00;;;20.40;99.90;;;;;;5058154;28;20044;-67
2023/08/12 07:11:53;;;;;;;18.83;11.13;;;20.50;99.90;;;;;;5061841;28;20459;-67
2023/08/12 07:14:18;;;;;;;20.33;10.93;;;20.40;99.90;;;;;;5049894;28;20075;-67
2023/08/12 07:16:44;;;;;;;19.55;11.77;;;20.50;99.90;;;;;;5044211;28;20480;-69
2023/08/12 07:19:09;;;;;;;26.88;11.43;;;20.40;99.90;;;;;;5040958;28;20044;-67
2023/08/12 07:21:35;;;;;;;20.05;12.88;;;20.50;99.90;;;;;;5065359;28;20141;-68
2023/08/12 07:24:01;;;;;;;24.90;13.30;;;20.50;99.90;;;;;;5064118;28;20104;-66
2023/08/12 07:26:26;;;;;;;21.25;11.95;;;20.50;99.90;;;;;;5041686;28;20043;-67
2023/08/12 07:28:52;;;;;;;22.05;12.20;;;20.50;99.90;;;;;;5049427;28;20483;-67
2023/08/12 07:31:18;;;;;;;27.38;13.13;;;20.50;99.90;;;;;;5045836;28;20067;-67
2023/08/12 07:33:43;;;;;;;19.27;12.48;;;20.50;99.90;;;;;;5044003;28;20029;-67
2023/08/12 07:36:09;;;;;;;23.65;12.70;;;20.50;99.90;;;;;;5043826;28;20086;-67
2023/08/12 07:38:35;;;;;;;23.65;14.98;;;20.50;99.90;;;;;;5027218;28;20056;-67
2023/08/12 07:41:01;;;;;;;22.70;13.88;;;20.50;99.90;;;;;;5063868;28;20052;-67
2023/08/12 07:43:26;;;;;;;21.95;14.00;;;20.50;99.90;;;;;;5060360;28;20420;-67
2023/08/12 07:45:53;;;;;;;23.83;14.10;;;20.50;99.90;;;;;;5041313;28;20487;-66
2023/08/12 07:48:22;;;;;;;26.45;14.52;;;20.50;99.90;;;;;;5063735;28;20119;-67
2023/08/12 07:50:54;;;;;;;24.45;15.18;;;20.50;99.90;;;;;;5048823;28;20126;-66
2023/08/12 07:53:20;;;;;;;23.80;14.35;;;20.60;99.90;;;;;;5044220;28;20506;-66
2023/08/12 07:55:46;;;;;;;26.02;15.40;;;20.60;99.90;;;;;;5038690;28;20032;-67
2023/08/12 07:58:12;;;;;;;24.38;15.65;;;20.60;99.90;;;;;;5062635;28;20052;-69
2023/08/12 08:00:38;;;;;;;23.70;14.68;;;20.60;99.90;;;;;;5049142;28;20080;-67
2023/08/12 08:03:04;;;;;;;24.95;15.63;;;20.60;99.90;;;;;;5046836;28;20459;-67
2023/08/12 08:05:30;;;;;;;28.02;15.93;;;20.60;99.90;;;;;;5096291;28;20531;-68
2023/08/12 08:07:55;;;;;;;27.10;16.25;;;20.60;99.90;;;;;;5023789;28;20072;-67
2023/08/12 08:10:21;;;;;;;28.65;16.00;;;20.70;99.90;;;;;;5023770;28;20046;-67
2023/08/12 08:12:47;;;;;;;30.83;17.02;;;20.70;99.90;;;;;;5056686;28;20685;-68
2023/08/12 08:15:13;;;;;;;27.95;16.95;;;20.80;99.90;;;;;;5049201;28;20051;-68
2023/08/12 08:17:39;;;;;;;30.75;18.85;;;20.70;99.90;;;;;;5047511;28;20106;-66
2023/08/12 08:20:05;;;;;;;30.90;19.17;;;20.70;99.90;;;;;;5047618;28;20040;-67
2023/08/12 08:22:32;;;;;;;26.35;17.52;;;20.80;99.90;;;;;;5037979;28;20075;-67
2023/08/12 08:24:58;;;;;;;31.13;19.88;;;20.80;99.90;;;;;;5067826;28;20048;-66
2023/08/12 08:27:23;;;;;;;28.55;18.70;;;20.80;99.90;;;;;;5059331;28;20044;-67
2023/08/12 08:29:49;;;;;;;24.77;17.80;;;20.80;99.90;;;;;;5052916;28;20070;-66
2023/08/12 08:32:15;;;;;;;29.23;18.48;;;20.80;99.90;;;;;;5053149;28;20221;-66
2023/08/12 08:34:40;;;;;;;30.45;19.70;;;20.80;99.90;;;;;;5046775;28;20040;-66
2023/08/12 08:37:06;;;;;;;31.88;18.48;;;20.90;99.90;;;;;;5030507;28;20111;-67
2023/08/12 08:39:32;;;;;;;30.55;19.25;;;20.90;99.90;;;;;;5048760;28;20041;-66
2023/08/12 08:41:58;;;;;;;30.67;20.38;;;20.90;99.90;;;;;;5058691;28;20048;-65
2023/08/12 08:44:29;;;;;;;29.92;19.25;;;20.90;99.90;;;;;;5059137;28;20045;-66
2023/08/12 08:46:56;;;;;;;29.77;18.88;;;20.90;99.90;;;;;;5067067;28;20393;-66
2023/08/12 08:49:22;;;;;;;27.35;18.23;;;20.90;99.90;;;;;;5066966;28;20484;-67
2023/08/12 08:51:49;;;;;;;27.90;18.95;;;20.90;99.90;;;;;;5057179;28;20322;-66
2023/08/12 08:54:15;;;;;;;27.15;18.13;;;20.80;99.90;;;;;;5030730;28;20037;-67
2023/08/12 08:56:41;;;;;;;31.67;17.52;;;20.80;99.90;;;;;;5030330;28;20508;-68
2023/08/12 08:59:07;;;;;;;25.80;17.02;;;20.90;99.90;;;;;;5054386;28;20047;-68
2023/08/12 09:01:35;;;;;;;32.40;19.10;;;20.80;99.90;;;;;;5049895;28;20052;-67
2023/08/12 09:04:03;;;;;;;26.45;16.83;;;20.80;99.90;;;;;;5068062;28;20051;-67
2023/08/12 09:06:29;;;;;;;25.63;16.73;;;20.80;99.90;;;;;;5066635;28;20286;-67
2023/08/12 09:08:55;;;;;;;28.40;16.35;;;20.80;99.90;;;;;;5063261;28;20120;-67
2023/08/12 09:11:21;;;;;;;25.42;16.55;;;20.80;99.90;;;;;;5046708;28;20470;-68
2023/08/12 09:13:48;;;;;;;23.23;15.90;;;20.70;99.90;;;;;;5033687;28;20052;-67
2023/08/12 09:16:14;;;;;;;20.83;14.60;;;20.70;99.90;;;;;;5064722;28;20079;-68
2023/08/12 09:18:44;;;;;;;22.52;14.88;;;20.70;99.90;;;;;;5066779;28;20052;-66
2023/08/12 09:21:10;;;;;;;19.90;14.00;;;20.70;99.90;;;;;;5068158;28;20353;-68
2023/08/12 09:23:38;;;;;;;20.52;12.77;;;20.70;99.90;;;;;;5045299;28;20033;-67
2023/08/12 09:26:14;;;;;;;20.88;14.02;;;20.60;99.90;;;;;;5047319;28;20076;-69
2023/08/12 09:28:41;;;;;;;20.80;15.18;;;20.60;99.90;;;;;;5049058;28;20086;-70
2023/08/12 09:31:07;;;;;;;26.40;17.30;;;20.60;99.90;;;;;;5042746;28;20237;-68
2023/08/12 09:33:38;;;;;;;28.35;18.10;;;20.50;99.90;;;;;;5029671;28;20040;-66
2023/08/12 09:36:04;;;;;;;28.92;18.58;;;20.50;99.90;;;;;;5046130;28;20460;-67
2023/08/12 09:38:30;;;;;;;28.70;18.88;;;20.50;99.90;;;;;;5046588;28;20131;-68
2023/08/12 09:40:56;;;;;;;28.42;19.58;;;20.40;99.90;;;;;;5065445;28;20044;-69
2023/08/12 09:43:27;;;;;;;27.25;19.10;;;20.40;99.90;;;;;;5065221;28;20040;-69
2023/08/12 09:45:57;;;;;;;25.83;19.13;;;20.40;99.90;;;;;;5047528;28;20494;-67
2023/08/12 09:48:23;;;;;;;32.75;21.17;;;20.30;99.90;;;;;;5045957;28;20049;-66
2023/08/12 09:50:49;;;;;;;28.10;20.20;;;20.30;99.90;;;;;;5045484;28;20605;-69
2023/08/12 09:53:15;;;;;;;30.55;21.08;;;20.30;99.90;;;;;;5009596;28;20037;-67
2023/08/12 09:55:43;;;;;;;30.63;20.88;;;20.30;99.90;;;;;;5029317;28;20037;-67
2023/08/12 09:58:10;;;;;;;26.90;19.67;;;20.30;99.90;;;;;;5047233;28;20045;-69
2023/08/12 10:00:36;;;;;;;33.30;21.02;;;20.30;99.90;;;;;;5051702;28;20041;-67
2023/08/12 10:03:03;;;;;;;26.05;19.15;;;20.30;99.90;;;;;;5029164;28;20325;-65
2023/08/12 10:05:32;;;;;;;27.20;18.85;;;20.30;99.90;;;;;;5047400;28;20037;-63
2023/08/12 10:08:00;;;;;;;21.73;15.48;;;20.20;99.90;;;;;;5045636;28;20041;-63
2023/08/12 10:10:26;;;;;;;23.48;15.60;;;20.20;99.90;;;;;;5028912;28;20044;-66
2023/08/12 10:12:52;;;;;;;17.73;12.70;;;20.20;99.90;;;;;;5036746;28;20040;-65
2023/08/12 10:15:18;;;;;;;13.88;9.60;;;20.20;99.90;;;;;;5044822;28;20082;-64
2023/08/12 10:17:45;;;;;;;14.90;10.57;;;20.20;99.90;;;;;;5065958;28;20382;-63
2023/08/12 10:20:14;;;;;;;13.15;8.40;;;20.10;99.90;;;;;;5063948;28;20423;-63
2023/08/12 10:22:42;;;;;;;13.07;7.68;;;20.10;99.90;;;;;;5048829;28;20071;-63
2023/08/12 10:25:08;;;;;;;18.17;8.73;;;20.00;99.90;;;;;;5065689;28;20411;-64
2023/08/12 10:27:35;;;;;;;14.55;7.75;;;20.00;99.90;;;;;;5065280;28;20445;-63
2023/08/12 10:30:09;;;;;;;13.68;6.90;;;20.00;99.90;;;;;;5045045;28;20078;-63
2023/08/12 10:32:36;;;;;;;11.48;6.43;;;20.00;99.90;;;;;;5032867;28;20524;-65
2023/08/12 10:35:02;;;;;;;12.65;7.03;;;19.90;99.90;;;;;;5032746;28;20439;-61
2023/08/12 10:37:32;;;;;;;14.20;7.18;;;19.90;99.90;;;;;;5064288;28;20601;-67
2023/08/12 10:39:58;;;;;;;12.48;6.93;;;19.80;99.90;;;;;;5064899;28;20074;-67
2023/08/12 10:42:41;;;;;;;11.00;6.95;;;19.80;99.90;;;;;;5061532;28;20072;-67
2023/08/12 10:45:07;;;;;;;9.10;6.18;;;19.80;99.90;;;;;;5051744;28;20044;-65
2023/08/12 10:47:34;;;;;;;15.32;7.13;;;19.80;99.90;;;;;;5066062;28;20045;-65
2023/08/12 10:50:01;;;;;;;12.80;6.47;;;19.80;99.90;;;;;;5061808;28;20487;-66
2023/08/12 10:52:28;;;;;;;12.35;6.45;;;19.80;99.90;;;;;;5046370;28;20049;-66
2023/08/12 10:54:54;;;;;;;11.23;6.25;;;19.80;99.90;;;;;;5054152;28;20048;-65
2023/08/12 10:57:38;;;;;;;11.90;5.90;;;19.80;99.90;;;;;;5061858;28;20333;-64
2023/08/12 11:00:05;;;;;;;13.27;6.53;;;19.80;99.90;;;;;;5049872;28;20040;-65
2023/08/12 11:02:34;;;;;;;13.85;6.93;;;19.80;99.90;;;;;;5044497;28;20536;-65
2023/08/12 11:05:04;;;;;;;10.02;5.47;;;19.80;99.90;;;;;;5030142;28;20056;-65
2023/08/12 11:07:35;;;;;;;12.40;6.13;;;19.80;99.90;;;;;;5097931;28;20048;-65
2023/08/12 11:10:18;;;;;;;10.30;5.20;;;19.80;99.90;;;;;;5064181;28;20040;-63
2023/08/12 11:12:54;;;;;;;11.93;5.38;;;19.80;99.90;;;;;;5064083;28;20082;-66
2023/08/12 11:15:43;;;;;;;8.52;4.22;;;19.80;99.90;;;;;;5029733;28;20041;-64
2023/08/12 11:18:12;;;;;;;7.45;4.38;;;19.80;99.90;;;;;;5043900;28;20044;-66
2023/08/12 11:20:39;;;;;;;8.27;4.78;;;19.80;99.90;;;;;;5064469;28;20396;-65
2023/08/12 11:23:06;;;;;;;7.25;4.30;;;19.80;99.90;;;;;;5055711;28;20388;-68
2023/08/12 11:25:33;;;;;;;9.10;4.78;;;19.80;99.90;;;;;;5044062;28;20116;-65
2023/08/12 11:27:59;;;;;;;10.65;5.45;;;19.80;99.90;;;;;;5043948;28;20052;-66
2023/08/12 11:30:26;;;;;;;7.75;4.55;;;19.80;99.90;;;;;;5049037;28;20041;-66
2023/08/12 11:32:53;;;;;;;9.50;5.07;;;19.80;99.90;;;;;;5027537;28;20404;-64
2023/08/12 11:35:23;;;;;;;8.65;4.90;;;19.80;99.90;;;;;;5044492;28;20041;-66
2023/08/12 11:37:52;;;;;;;9.73;5.28;;;19.80;99.90;;;;;;5027374;28;20045;-62
2023/08/12 11:40:19;;;;;;;7.15;3.47;;;19.90;99.90;;;;;;5059858;28;20403;-67
2023/08/12 11:42:49;;;;;;;6.13;3.08;;;19.90;99.90;;;;;;5064354;28;20430;-64
2023/08/12 11:45:20;;;;;;;5.95;2.80;;;19.90;99.90;;;;;;5056069;28;20170;-63
2023/08/12 11:47:52;;;;;;;5.57;2.47;;;19.80;99.90;;;;;;5063636;28;20060;-63
2023/08/12 11:50:20;;;;;;;5.28;2.42;;;19.70;99.90;;;;;;5053598;28;20385;-64
2023/08/12 11:52:46;;;;;;;4.65;2.35;;;19.70;99.90;;;;;;5043665;28;20052;-66
2023/08/12 11:55:12;;;;;;;8.38;3.10;;;19.70;99.90;;;;;;5043964;28;20037;-68
2023/08/12 11:57:39;;;;;;;8.98;3.72;;;19.60;99.90;;;;;;5026808;28;20060;-68
2023/08/12 12:00:13;;;;;;;6.70;2.78;;;19.70;99.90;;;;;;5056358;28;20037;-67
2023/08/12 12:02:57;;;;;;;4.20;2.00;;;19.60;99.90;;;;;;5047219;28;20168;-66
2023/08/12 12:05:27;;;;;;;;;;;19.60;99.90;;;;;;5048243;28;20488;-64
2023/08/12 12:07:54;;;;;;;6.45;2.45;;;19.60;99.90;;;;;;5061720;28;19920;-64
2023/08/12 12:10:21;;;;;;;5.70;2.35;;;19.60;99.90;;;;;;5064779;28;20473;-65
2023/08/12 12:12:48;;;;;;;6.18;2.55;;;19.60;99.90;;;;;;5043053;28;20424;-63
2023/08/12 12:15:17;;;;;;;6.40;2.30;;;19.60;99.90;;;;;;5048924;28;20083;-63
2023/08/12 12:17:45;;;;;;;7.43;2.63;;;19.60;99.90;;;;;;5027459;28;20036;-68
2023/08/12 12:20:11;;;;;;;6.15;2.38;;;19.50;99.90;;;;;;5043469;28;20250;-69
2023/08/12 12:22:37;;;;;;;7.35;2.20;;;19.50;99.90;;;;;;5038832;28;20403;-64
2023/08/12 12:25:12;;;;;;;5.72;1.88;;;19.50;99.90;;;;;;5064786;28;20044;-60
2023/08/12 12:27:39;;;;;;;6.47;2.00;;;19.50;99.90;;;;;;5064604;28;20127;-62
2023/08/12 12:30:07;;;;;;;6.30;2.42;;;19.30;99.90;;;;;;5059331;28;20032;-61
2023/08/12 12:32:34;;;;;;;8.32;3.00;;;19.20;99.90;;;;;;5046590;28;20040;-62